Time;durP1;ratioP1;P1;durP2;ratioP2;P2;SDS_P1;SDS_P2;PMS_P1;PMS_P2;Temp;Humidity;BMP_temperature;BMP_pressure;BME280_temperature;BME280_humidity;BME280_pressure;Samples;Min_cycle;Max_cycle;Signal;HPM_P1;HPM_P2
2021/10/24 00:00:37;;;;;;;2.13;1.30;;;-3.90;99.90;;;;;;5154841;27;20424;-66
2021/10/24 00:03:03;;;;;;;1.30;1.20;;;-3.90;99.90;;;;;;5155374;27;20105;-67
2021/10/24 00:05:29;;;;;;;2.65;1.50;;;-3.90;99.90;;;;;;5155050;27;20045;-67
2021/10/24 00:07:55;;;;;;;2.28;1.42;;;-3.90;99.90;;;;;;5155300;27;20445;-67
2021/10/24 00:10:20;;;;;;;3.45;1.45;;;-4.00;99.90;;;;;;5154875;27;20462;-67
2021/10/24 00:12:46;;;;;;;3.47;1.55;;;-4.00;99.90;;;;;;5154800;27;20027;-67
2021/10/24 00:15:12;;;;;;;5.03;2.58;;;-4.00;99.90;;;;;;5154783;27;20080;-66
2021/10/24 00:17:38;;;;;;;1.77;1.55;;;-4.10;99.90;;;;;;5154505;27;20034;-67
2021/10/24 00:20:04;;;;;;;4.68;1.52;;;-4.10;99.90;;;;;;5154990;27;20026;-67
2021/10/24 00:22:30;;;;;;;1.98;1.45;;;-4.10;99.90;;;;;;5154770;27;20402;-67
2021/10/24 00:24:56;;;;;;;1.30;1.20;;;-4.20;99.90;;;;;;5154640;27;20018;-67
2021/10/24 00:27:22;;;;;;;3.83;1.30;;;-4.20;99.90;;;;;;5153933;27;20019;-67
2021/10/24 00:29:47;;;;;;;1.55;1.40;;;-4.10;99.90;;;;;;5154622;27;20469;-67
2021/10/24 00:32:13;;;;;;;3.67;1.42;;;-4.10;99.90;;;;;;5154657;27;20073;-67
2021/10/24 00:34:43;;;;;;;1.25;1.15;;;-4.10;99.90;;;;;;5154356;27;20022;-67
2021/10/24 00:37:09;;;;;;;3.13;1.48;;;-4.10;99.90;;;;;;5154489;27;20070;-68
2021/10/24 00:39:34;;;;;;;3.35;1.40;;;-4.10;99.90;;;;;;5154602;27;20019;-67
2021/10/24 00:42:01;;;;;;;2.53;1.42;;;-4.20;99.90;;;;;;5154418;27;20039;-67
2021/10/24 00:44:29;;;;;;;3.13;1.50;;;-4.20;99.90;;;;;;5154372;27;20022;-67
2021/10/24 00:46:57;;;;;;;1.67;1.58;;;-4.20;99.90;;;;;;5152951;27;20094;-68
2021/10/24 00:49:24;;;;;;;2.90;1.50;;;-4.30;99.90;;;;;;5154654;27;20472;-67
2021/10/24 00:51:51;;;;;;;3.35;1.60;;;-4.30;99.90;;;;;;5153999;27;20034;-67
2021/10/24 00:54:20;;;;;;;2.05;1.48;;;-4.30;99.90;;;;;;5154244;27;20027;-67
2021/10/24 00:56:49;;;;;;;2.40;1.63;;;-4.30;99.90;;;;;;5153842;27;20042;-68
2021/10/24 00:59:15;;;;;;;3.45;1.50;;;-4.40;99.90;;;;;;5154098;27;20356;-68
2021/10/24 01:01:41;;;;;;;1.80;1.27;;;-4.30;99.90;;;;;;5153875;27;20019;-68
2021/10/24 01:04:08;;;;;;;1.45;1.30;;;-4.40;99.90;;;;;;5152794;27;20477;-68
2021/10/24 01:06:35;;;;;;;1.90;1.52;;;-4.40;99.90;;;;;;5153621;27;20477;-68
2021/10/24 01:09:04;;;;;;;1.38;1.25;;;-4.40;99.90;;;;;;5153955;27;20068;-68
2021/10/24 01:11:30;;;;;;;2.60;1.40;;;-4.40;99.90;;;;;;5153678;27;20118;-67
2021/10/24 01:13:56;;;;;;;1.85;1.52;;;-4.50;99.90;;;;;;5153737;27;20055;-67
2021/10/24 01:16:23;;;;;;;1.65;1.50;;;-4.50;99.90;;;;;;5153957;27;20026;-67
2021/10/24 01:18:49;;;;;;;1.67;1.42;;;-4.50;99.90;;;;;;5153662;27;20026;-68
2021/10/24 01:21:16;;;;;;;2.97;1.40;;;-4.60;99.90;;;;;;5152505;27;20493;-67
2021/10/24 01:23:42;;;;;;;1.30;1.20;;;-4.60;99.90;;;;;;5153651;27;20049;-67
2021/10/24 01:26:08;;;;;;;3.13;1.48;;;-4.60;99.90;;;;;;5153874;27;20378;-67
2021/10/24 01:28:34;;;;;;;3.25;1.50;;;-4.60;99.90;;;;;;5153553;27;20018;-67
2021/10/24 01:31:01;;;;;;;8.82;1.60;;;-4.60;99.90;;;;;;5153508;27;20034;-67
2021/10/24 01:33:27;;;;;;;1.83;1.52;;;-4.60;99.90;;;;;;5153668;27;20508;-67
2021/10/24 01:35:56;;;;;;;2.05;1.50;;;-4.60;99.90;;;;;;5153588;27;20085;-67
2021/10/24 01:38:23;;;;;;;2.70;1.90;;;-4.70;99.90;;;;;;5153597;27;20030;-67
2021/10/24 01:40:51;;;;;;;4.25;1.50;;;-4.70;99.90;;;;;;5157679;27;20027;-67
2021/10/24 01:43:18;;;;;;;3.95;1.70;;;-4.70;99.90;;;;;;5157996;27;20026;-67
2021/10/24 01:45:44;;;;;;;1.80;1.52;;;-4.70;99.90;;;;;;5157588;27;20086;-67
2021/10/24 01:48:10;;;;;;;2.47;1.58;;;-4.70;99.90;;;;;;5157743;27;20023;-67
2021/10/24 01:50:36;;;;;;;2.78;1.70;;;-4.80;99.90;;;;;;5157505;27;20015;-67
2021/10/24 01:53:02;;;;;;;3.97;1.60;;;-4.70;99.90;;;;;;5157814;27;20041;-67
2021/10/24 01:55:28;;;;;;;1.48;1.27;;;-4.70;99.90;;;;;;5157564;27;20030;-67
2021/10/24 01:57:54;;;;;;;1.48;1.30;;;-4.80;99.90;;;;;;5157393;27;20785;-67
2021/10/24 02:00:21;;;;;;;3.20;1.50;;;-4.80;99.90;;;;;;5157443;27;20121;-67
2021/10/24 02:02:47;;;;;;;3.97;1.60;;;-4.80;99.90;;;;;;5157555;27;20027;-67
2021/10/24 02:05:13;;;;;;;1.92;1.40;;;-4.80;99.90;;;;;;5157467;27;20462;-67
2021/10/24 02:07:39;;;;;;;3.28;1.52;;;-4.80;99.90;;;;;;5157472;27;20023;-67
2021/10/24 02:10:07;;;;;;;3.03;1.42;;;-4.80;99.90;;;;;;5157706;27;20077;-67
2021/10/24 02:12:34;;;;;;;1.60;1.48;;;-4.80;99.90;;;;;;5157213;27;20094;-67
2021/10/24 02:15:00;;;;;;;2.08;1.42;;;-4.80;99.90;;;;;;5157171;27;20019;-67
2021/10/24 02:17:26;;;;;;;2.40;1.55;;;-4.80;99.90;;;;;;5157254;27;20023;-67
2021/10/24 02:19:51;;;;;;;2.50;1.60;;;-4.80;99.90;;;;;;5157113;27;20019;-67
2021/10/24 02:22:17;;;;;;;2.95;1.52;;;-4.80;99.90;;;;;;5157058;27;20485;-67
2021/10/24 02:56:12;;;;;;;1.70;1.60;;;-4.80;99.90;;;;;;5155848;27;20042;-67
2021/10/24 02:58:38;;;;;;;2.08;1.40;;;-4.80;99.90;;;;;;5156321;27;20086;-67
2021/10/24 03:01:04;;;;;;;2.90;1.60;;;-4.80;99.90;;;;;;5156160;27;20023;-67
2021/10/24 03:03:29;;;;;;;1.40;1.27;;;-4.80;99.90;;;;;;5156495;27;20050;-67
2021/10/24 03:05:55;;;;;;;2.53;1.52;;;-4.80;99.90;;;;;;5156180;27;20083;-68
2021/10/24 03:08:21;;;;;;;2.35;1.55;;;-4.80;99.90;;;;;;5155864;27;20117;-65
2021/10/24 03:10:47;;;;;;;1.48;1.38;;;-4.80;99.90;;;;;;5156059;27;20048;-67
2021/10/24 03:13:15;;;;;;;1.98;1.58;;;-4.80;99.90;;;;;;5155853;27;20027;-67
2021/10/24 03:15:41;;;;;;;1.63;1.40;;;-4.80;99.90;;;;;;5155996;27;20466;-67
2021/10/24 03:18:07;;;;;;;3.17;1.60;;;-4.80;99.90;;;;;;5155798;27;20026;-67
2021/10/24 03:20:33;;;;;;;3.17;1.50;;;-4.80;99.90;;;;;;5155940;27;20019;-67
2021/10/24 03:22:59;;;;;;;2.25;1.60;;;-4.80;99.90;;;;;;5155839;27;20488;-67
2021/10/24 03:25:25;;;;;;;2.30;1.55;;;-4.80;99.90;;;;;;5155760;27;20473;-67
2021/10/24 03:27:51;;;;;;;1.90;1.65;;;-4.80;99.90;;;;;;5155959;27;20023;-67
2021/10/24 03:30:18;;;;;;;2.45;1.17;;;-4.90;99.90;;;;;;5155953;27;20038;-67
2021/10/24 03:32:44;;;;;;;1.50;1.40;;;-4.80;99.90;;;;;;5154322;27;20034;-67
2021/10/24 03:35:09;;;;;;;2.78;1.85;;;-4.80;99.90;;;;;;5155501;27;20021;-67
2021/10/24 03:37:35;;;;;;;2.92;1.50;;;-4.80;99.90;;;;;;5155536;27;20026;-67
2021/10/24 03:40:01;;;;;;;2.08;1.50;;;-4.80;99.90;;;;;;5155539;27;20050;-67
2021/10/24 03:42:27;;;;;;;1.65;1.55;;;-4.80;99.90;;;;;;5155507;27;20513;-67
2021/10/24 03:44:53;;;;;;;1.63;1.48;;;-4.70;99.90;;;;;;5155574;27;20068;-67
2021/10/24 03:47:19;;;;;;;2.55;1.50;;;-4.70;99.90;;;;;;5155559;27;20027;-67
2021/10/24 03:49:45;;;;;;;2.05;1.85;;;-4.70;99.90;;;;;;5155590;27;20042;-67
2021/10/24 03:52:11;;;;;;;1.60;1.50;;;-4.70;99.90;;;;;;5155103;27;20458;-67
2021/10/24 03:54:37;;;;;;;2.65;1.80;;;-4.70;99.90;;;;;;5155269;27;20034;-67
2021/10/24 03:57:03;;;;;;;4.82;1.73;;;-4.70;99.90;;;;;;5154986;27;20043;-67
2021/10/24 03:59:29;;;;;;;1.73;1.50;;;-4.70;99.90;;;;;;5155215;27;20426;-67
2021/10/24 04:01:54;;;;;;;1.60;1.50;;;-4.70;99.90;;;;;;5154238;27;20030;-68
2021/10/24 04:04:20;;;;;;;2.28;1.60;;;-4.70;99.90;;;;;;5155163;27;20046;-67
2021/10/24 04:06:46;;;;;;;4.38;1.90;;;-4.70;99.90;;;;;;5154960;27;20390;-67
2021/10/24 04:09:11;;;;;;;1.92;1.50;;;-4.70;99.90;;;;;;5154931;27;20054;-67
2021/10/24 04:11:37;;;;;;;2.55;1.50;;;-4.70;99.90;;;;;;5154993;27;20030;-67
2021/10/24 04:14:04;;;;;;;1.98;1.77;;;-4.60;99.90;;;;;;5155022;27;20102;-67
2021/10/24 04:16:29;;;;;;;2.40;1.80;;;-4.60;99.90;;;;;;5154970;27;20019;-67
2021/10/24 04:18:55;;;;;;;1.42;1.33;;;-4.60;99.90;;;;;;5154797;27;20027;-67
2021/10/24 04:21:21;;;;;;;3.63;1.58;;;-4.60;99.90;;;;;;5154608;27;20022;-67
2021/10/24 04:23:47;;;;;;;2.90;1.65;;;-4.60;99.90;;;;;;5154957;27;20022;-67
2021/10/24 04:26:13;;;;;;;2.70;1.65;;;-4.60;99.90;;;;;;5154486;27;20431;-67
2021/10/24 04:28:38;;;;;;;1.75;1.60;;;-4.60;99.90;;;;;;5154444;27;20023;-67
2021/10/24 04:31:04;;;;;;;2.15;1.67;;;-4.60;99.90;;;;;;5154728;27;20019;-65
2021/10/24 04:33:30;;;;;;;2.50;1.70;;;-4.60;99.90;;;;;;5154358;27;20062;-65
2021/10/24 04:35:56;;;;;;;2.28;1.60;;;-4.50;99.90;;;;;;5154392;27;20026;-66
2021/10/24 04:38:22;;;;;;;2.30;1.80;;;-4.50;99.90;;;;;;5154239;27;20030;-67
2021/10/24 04:40:48;;;;;;;1.95;1.50;;;-4.40;99.90;;;;;;5154401;27;20031;-65
2021/10/24 04:43:15;;;;;;;2.35;1.45;;;-1.60;99.90;;;;;;5154138;27;20035;-64
2021/10/24 04:45:41;;;;;;;2.97;1.50;;;-1.60;99.90;;;;;;5150676;27;20114;-65
2021/10/24 04:48:08;;;;;;;1.48;1.38;;;-2.40;99.90;;;;;;5146593;27;20413;-64
2021/10/24 04:50:33;;;;;;;1.65;1.45;;;-3.00;99.90;;;;;;5142372;27;20014;-64
2021/10/24 04:53:04;;;;;;;1.52;1.42;;;-3.30;99.90;;;;;;5144052;27;20034;-64
2021/10/24 04:55:30;;;;;;;3.85;1.73;;;-3.60;99.90;;;;;;5139006;27;20026;-64
2021/10/24 04:57:56;;;;;;;1.55;1.45;;;-3.70;99.90;;;;;;5134404;27;20031;-64
2021/10/24 05:00:21;;;;;;;2.08;1.60;;;-3.90;99.90;;;;;;5130143;27;20103;-65
2021/10/24 05:02:47;;;;;;;1.40;1.30;;;-4.00;99.90;;;;;;5139456;27;20382;-65
2021/10/24 05:05:13;;;;;;;1.50;1.40;;;-4.10;99.90;;;;;;5139119;27;20019;-65
2021/10/24 05:07:38;;;;;;;1.88;1.42;;;-4.20;99.90;;;;;;5135159;27;20084;-65
2021/10/24 05:10:05;;;;;;;1.70;1.52;;;-4.20;99.90;;;;;;5117551;27;20106;-65
2021/10/24 05:12:31;;;;;;;2.38;1.55;;;-4.20;99.90;;;;;;5143891;27;20033;-64
2021/10/24 05:14:56;;;;;;;1.73;1.50;;;-4.30;99.90;;;;;;5142975;27;20023;-65
2021/10/24 05:17:22;;;;;;;2.30;1.63;;;-4.30;99.90;;;;;;5142226;27;20069;-64
2021/10/24 05:19:48;;;;;;;2.80;1.80;;;-4.30;99.90;;;;;;5135992;27;20087;-64
2021/10/24 05:22:13;;;;;;;2.97;1.75;;;-4.20;99.90;;;;;;5133290;27;20029;-63
2021/10/24 05:24:39;;;;;;;2.53;1.70;;;-4.20;99.90;;;;;;5133112;27;20367;-63
2021/10/24 05:27:05;;;;;;;4.60;1.67;;;-4.00;99.90;;;;;;5132989;27;20034;-63
2021/10/24 05:29:30;;;;;;;3.33;2.05;;;-4.00;99.90;;;;;;5132905;28;20019;-63
2021/10/24 05:31:56;;;;;;;2.03;1.48;;;-4.00;99.90;;;;;;5132871;28;20026;-63
2021/10/24 05:34:22;;;;;;;2.88;2.10;;;-4.00;99.90;;;;;;5132821;28;20541;-64
2021/10/24 05:36:48;;;;;;;2.22;1.48;;;-4.00;99.90;;;;;;5132816;28;20032;-63
2021/10/24 05:39:14;;;;;;;2.25;1.75;;;-3.90;99.90;;;;;;5132701;28;20023;-64
2021/10/24 05:41:40;;;;;;;2.85;2.03;;;-3.90;99.90;;;;;;5132833;28;20026;-64
2021/10/24 05:44:06;;;;;;;2.70;1.60;;;-4.00;99.90;;;;;;5132901;28;20044;-67
2021/10/24 05:46:33;;;;;;;2.58;1.70;;;-4.00;99.90;;;;;;5132972;28;20023;-64
2021/10/24 05:48:59;;;;;;;1.60;1.45;;;-3.50;99.90;;;;;;5132936;28;20023;-64
2021/10/24 05:51:26;;;;;;;3.45;2.25;;;-3.40;99.90;;;;;;5132425;28;20478;-63
2021/10/24 05:53:52;;;;;;;3.28;2.03;;;-3.50;99.90;;;;;;5132547;28;20192;-64
2021/10/24 05:56:18;;;;;;;6.53;3.85;;;-3.60;99.90;;;;;;5132699;28;20047;-65
2021/10/24 05:58:43;;;;;;;13.98;5.85;;;-3.60;99.90;;;;;;5132767;28;20030;-65
2021/10/24 06:01:10;;;;;;;99.85;34.60;;;-3.60;99.90;;;;;;5132520;28;20254;-64
2021/10/24 06:03:35;;;;;;;19.42;8.90;;;-3.70;99.90;;;;;;5132618;28;20072;-66
2021/10/24 06:06:01;;;;;;;7.47;2.78;;;-3.70;99.90;;;;;;5132600;28;20019;-65
2021/10/24 06:08:27;;;;;;;4.45;2.13;;;-3.80;99.90;;;;;;5131135;28;20019;-65
2021/10/24 06:10:55;;;;;;;3.50;1.30;;;-3.80;99.90;;;;;;5132641;28;20023;-64
2021/10/24 06:13:22;;;;;;;1.90;1.65;;;-3.80;99.90;;;;;;5132271;27;20037;-65
2021/10/24 06:15:48;;;;;;;4.35;1.70;;;-3.80;99.90;;;;;;5132574;28;20068;-66
2021/10/24 06:18:15;;;;;;;4.95;1.70;;;-3.80;99.90;;;;;;5132369;28;20030;-65
2021/10/24 06:20:41;;;;;;;2.25;1.75;;;-3.80;99.90;;;;;;5132736;28;20027;-65
2021/10/24 06:23:07;;;;;;;2.80;1.70;;;-3.80;99.90;;;;;;5132709;28;20019;-65
2021/10/24 06:25:33;;;;;;;3.80;1.90;;;-3.80;99.90;;;;;;5133912;27;20031;-65
2021/10/24 06:27:59;;;;;;;3.28;1.60;;;-3.70;99.90;;;;;;5136228;27;20015;-66
2021/10/24 06:30:25;;;;;;;1.60;1.40;;;-3.70;99.90;;;;;;5136126;27;20502;-65
2021/10/24 06:32:51;;;;;;;1.92;1.77;;;-3.70;99.90;;;;;;5136297;27;20031;-66
2021/10/24 06:35:17;;;;;;;2.35;1.65;;;-3.70;99.90;;;;;;5136058;27;20022;-66
2021/10/24 06:37:45;;;;;;;1.83;1.50;;;-3.80;99.90;;;;;;5136067;27;20023;-65
2021/10/24 06:40:13;;;;;;;2.50;1.80;;;-3.80;99.90;;;;;;5136066;27;20015;-65
2021/10/24 06:42:39;;;;;;;1.90;1.70;;;-3.40;99.90;;;;;;5136052;27;20031;-66
2021/10/24 06:45:06;;;;;;;2.67;1.85;;;-3.20;99.90;;;;;;5136242;27;20024;-66
2021/10/24 06:47:33;;;;;;;4.40;1.80;;;-3.40;99.90;;;;;;5135741;27;20053;-65
2021/10/24 06:49:59;;;;;;;1.85;1.60;;;-3.50;99.90;;;;;;5135869;27;20027;-65
2021/10/24 06:52:25;;;;;;;2.25;1.80;;;-3.60;99.90;;;;;;5133970;27;20037;-64
2021/10/24 06:54:51;;;;;;;9.13;2.70;;;-3.60;99.90;;;;;;5138269;27;20018;-64
2021/10/24 06:57:18;;;;;;;1.67;1.52;;;-3.60;99.90;;;;;;5145363;27;20047;-64
2021/10/24 06:59:44;;;;;;;1.65;1.55;;;-3.60;99.90;;;;;;5147675;27;20027;-64
2021/10/24 07:02:10;;;;;;;2.33;1.80;;;-3.60;99.90;;;;;;5155280;27;20037;-66
2021/10/24 07:04:36;;;;;;;3.30;1.70;;;-2.80;99.90;;;;;;5156323;27;20474;-67
2021/10/24 07:07:02;;;;;;;1.60;1.38;;;-2.20;99.90;;;;;;5156286;27;20052;-67
2021/10/24 07:09:28;;;;;;;2.13;1.80;;;-2.50;99.90;;;;;;5155745;27;20030;-67
2021/10/24 07:11:54;;;;;;;3.97;1.88;;;-2.80;99.90;;;;;;5140316;27;20031;-67
2021/10/24 07:14:19;;;;;;;2.03;1.75;;;-3.00;99.90;;;;;;5135134;27;20016;-67
2021/10/24 07:16:45;;;;;;;3.33;1.80;;;-3.10;99.90;;;;;;5135237;27;20027;-67
2021/10/24 07:19:11;;;;;;;2.28;1.50;;;-3.20;99.90;;;;;;5135098;27;20110;-67
2021/10/24 07:21:36;;;;;;;2.33;2.13;;;-3.30;99.90;;;;;;5135262;27;20030;-67
2021/10/24 07:24:03;;;;;;;12.52;5.55;;;-3.30;99.90;;;;;;5135302;27;20423;-67
2021/10/24 07:26:28;;;;;;;6.75;4.28;;;-3.30;99.90;;;;;;5135001;27;20635;-67
2021/10/24 07:28:54;;;;;;;3.67;2.72;;;-3.30;99.90;;;;;;5142318;27;20114;-67
2021/10/24 07:31:20;;;;;;;2.50;2.22;;;-3.30;99.90;;;;;;5143515;27;20480;-67
2021/10/24 07:33:45;;;;;;;2.22;1.58;;;-3.30;99.90;;;;;;5144978;27;20050;-67
2021/10/24 07:36:11;;;;;;;1.50;1.40;;;-3.30;99.90;;;;;;5145368;27;20080;-67
2021/10/24 07:38:38;;;;;;;2.38;2.17;;;-3.30;99.90;;;;;;5134888;27;20484;-67
2021/10/24 07:41:03;;;;;;;2.45;2.00;;;-3.20;99.90;;;;;;5135114;27;20034;-67
2021/10/24 07:43:32;;;;;;;2.20;1.70;;;-3.20;99.90;;;;;;5134600;27;20019;-67
2021/10/24 07:45:58;;;;;;;3.05;2.40;;;-3.20;99.90;;;;;;5134771;27;20023;-64
2021/10/24 07:48:24;;;;;;;9.60;2.40;;;-3.10;99.90;;;;;;5134437;27;20471;-65
2021/10/24 07:50:51;;;;;;;6.32;1.92;;;-2.80;99.90;;;;;;5135016;27;20027;-65
2021/10/24 07:53:18;;;;;;;2.92;1.90;;;-1.30;99.90;;;;;;5134454;27;20042;-66
2021/10/24 07:55:44;;;;;;;2.38;1.80;;;-0.90;99.90;;;;;;5134285;27;20043;-66
2021/10/24 07:58:10;;;;;;;2.65;1.50;;;-0.30;99.90;;;;;;5134557;27;20031;-65
2021/10/24 08:00:36;;;;;;;7.32;3.40;;;-0.30;99.90;;;;;;5134465;27;20019;-66
2021/10/24 08:03:08;;;;;;;2.70;1.95;;;-0.70;99.90;;;;;;5134524;27;20546;-65
2021/10/24 08:05:34;;;;;;;2.95;1.70;;;-0.70;99.90;;;;;;5134248;27;20061;-63
2021/10/24 08:08:01;;;;;;;3.63;2.10;;;0.50;99.90;;;;;;5134650;27;20423;-63
2021/10/24 08:10:27;;;;;;;2.10;1.83;;;0.00;99.90;;;;;;5133921;27;20552;-63
2021/10/24 08:12:53;;;;;;;4.15;1.92;;;-0.60;99.90;;;;;;5134258;27;20386;-63
2021/10/24 08:15:20;;;;;;;4.97;3.28;;;-0.80;99.90;;;;;;5133965;27;20023;-64
2021/10/24 08:17:48;;;;;;;13.38;6.00;;;-0.80;99.90;;;;;;5134265;27;20023;-64
2021/10/24 08:20:15;;;;;;;8.70;5.00;;;-0.50;99.90;;;;;;5134122;27;20012;-66
2021/10/24 08:22:41;;;;;;;11.98;5.45;;;1.10;99.90;;;;;;5142368;27;20105;-63
2021/10/24 08:25:08;;;;;;;9.93;5.32;;;2.90;99.90;;;;;;5152198;27;20127;-63
2021/10/24 08:27:34;;;;;;;5.82;3.85;;;2.60;99.90;;;;;;5153728;27;20546;-63
2021/10/24 08:30:04;;;;;;;2.25;1.63;;;1.60;99.90;;;;;;5153852;27;20027;-63
2021/10/24 08:32:30;;;;;;;;;;;0.70;99.90;;;;;;5154457;27;20413;-63
2021/10/24 08:34:56;;;;;;;5.18;1.95;;;0.00;99.90;;;;;;5154555;27;20001;-63
2021/10/24 08:37:21;;;;;;;2.90;1.85;;;-0.60;99.90;;;;;;5154257;27;20474;-63
2021/10/24 08:39:52;;;;;;;5.63;2.30;;;-1.00;99.90;;;;;;5154336;27;20062;-63
2021/10/24 08:42:19;;;;;;;;;;;-1.10;99.90;;;;;;5154895;27;20216;-63
2021/10/24 08:44:44;;;;;;;4.93;2.13;;;-1.30;99.90;;;;;;5154244;27;19962;-63
2021/10/24 08:47:12;;;;;;;6.30;2.25;;;-1.40;99.90;;;;;;5154392;27;20047;-63
2021/10/24 08:49:38;;;;;;;4.70;2.45;;;-1.50;99.90;;;;;;5153993;27;20050;-63
2021/10/24 08:52:05;;;;;;;5.38;2.83;;;-1.40;99.90;;;;;;5154242;27;20422;-63
2021/10/24 08:54:34;;;;;;;5.57;3.42;;;-1.30;99.90;;;;;;5152628;27;20034;-64
2021/10/24 08:57:00;;;;;;;9.30;3.23;;;-1.60;99.90;;;;;;5153802;27;20039;-65
2021/10/24 08:59:26;;;;;;;6.32;3.13;;;-1.80;99.90;;;;;;5140057;27;20045;-62
2021/10/24 09:01:54;;;;;;;5.65;2.55;;;-1.80;99.90;;;;;;5134388;27;20378;-62
2021/10/24 09:04:21;;;;;;;7.32;3.17;;;-1.50;99.90;;;;;;5138992;27;20011;-63
2021/10/24 09:06:59;;;;;;;5.88;2.90;;;-0.10;99.90;;;;;;5153934;27;20031;-63
2021/10/24 09:09:30;;;;;;;4.32;2.53;;;-0.30;99.90;;;;;;5151781;27;20445;-62
2021/10/24 09:12:00;;;;;;;4.68;2.47;;;0.20;99.90;;;;;;5133016;27;20037;-63
2021/10/24 09:14:45;;;;;;;;;;;-0.20;99.90;;;;;;5133475;27;20034;-63
2021/10/24 09:17:22;;;;;;;5.20;2.40;;;-0.50;99.90;;;;;;5133113;27;19903;-63
2021/10/24 09:19:56;;;;;;;3.88;2.83;;;-0.80;99.90;;;;;;5133251;27;20304;-63
2021/10/24 09:22:26;;;;;;;4.65;2.60;;;-1.00;99.90;;;;;;5136495;27;20026;-62
2021/10/24 09:25:07;;;;;;;3.13;2.50;;;-1.10;99.90;;;;;;5141354;27;20022;-63
2021/10/24 09:27:42;;;;;;;5.63;2.35;;;-1.10;99.90;;;;;;5141901;27;20030;-64
2021/10/24 09:30:10;;;;;;;3.45;2.33;;;-1.10;99.90;;;;;;5141583;27;20035;-62
2021/10/24 09:32:59;;;;;;;2.63;2.25;;;-1.10;99.90;;;;;;5132828;28;20118;-62
2021/10/24 09:35:46;;;;;;;5.78;1.98;;;-1.20;99.90;;;;;;5132886;28;20023;-62
2021/10/24 09:38:21;;;;;;;5.00;2.00;;;-1.20;99.90;;;;;;5132792;28;20075;-62
2021/10/24 09:40:50;;;;;;;2.60;2.10;;;-1.20;99.90;;;;;;5132796;28;20023;-62
2021/10/24 09:43:30;;;;;;;3.83;1.95;;;-1.20;99.90;;;;;;5132668;28;20031;-64
2021/10/24 09:45:59;;;;;;;2.50;1.92;;;-1.30;99.90;;;;;;5138783;27;20091;-62
2021/10/24 09:48:27;;;;;;;2.97;2.35;;;-1.30;99.90;;;;;;5140489;27;20490;-63
2021/10/24 09:50:55;;;;;;;2.70;2.50;;;-1.40;99.90;;;;;;5148813;27;20390;-62
2021/10/24 09:53:29;;;;;;;3.78;2.90;;;-1.30;99.90;;;;;;5153274;27;20046;-62
2021/10/24 09:55:57;;;;;;;5.13;2.78;;;-1.30;99.90;;;;;;5153301;27;20030;-62
2021/10/24 09:58:46;;;;;;;2.83;2.50;;;-1.30;99.90;;;;;;5153098;27;20030;-62
2021/10/24 10:01:17;;;;;;;5.65;2.85;;;-1.30;99.90;;;;;;5156100;27;20785;-63
2021/10/24 10:03:50;;;;;;;4.75;2.85;;;-1.20;99.90;;;;;;5157196;27;20057;-62
2021/10/24 10:06:20;;;;;;;3.85;2.80;;;-1.10;99.90;;;;;;5157376;27;20022;-62
2021/10/24 10:08:46;;;;;;;3.92;2.70;;;-1.10;99.90;;;;;;5157381;27;20665;-62
2021/10/24 10:11:18;;;;;;;6.20;3.42;;;-1.00;99.90;;;;;;5157368;27;20047;-62
2021/10/24 10:13:47;;;;;;;5.45;3.60;;;-1.10;99.90;;;;;;5157059;27;20034;-62
2021/10/24 10:16:17;;;;;;;5.32;3.72;;;-1.00;99.90;;;;;;5157283;27;20508;-62
2021/10/24 10:18:55;;;;;;;6.30;3.53;;;-1.00;99.90;;;;;;5153549;27;20098;-62
2021/10/24 10:21:41;;;;;;;4.22;3.00;;;-1.00;99.90;;;;;;5125975;27;20030;-63
2021/10/24 10:24:10;;;;;;;7.30;3.13;;;-0.90;99.90;;;;;;5126523;27;20023;-62
2021/10/24 10:26:40;;;;;;;5.30;3.25;;;-0.90;99.90;;;;;;5125224;27;20035;-62
2021/10/24 10:29:11;;;;;;;4.38;3.33;;;-0.80;99.90;;;;;;5124649;27;20026;-62
2021/10/24 10:31:38;;;;;;;6.40;3.20;;;-0.80;99.90;;;;;;5126399;27;20015;-62
2021/10/24 10:34:09;;;;;;;7.78;3.35;;;-0.80;99.90;;;;;;5147972;27;20038;-62
2021/10/24 10:36:44;;;;;;;4.25;3.30;;;-0.80;99.90;;;;;;5134077;27;20020;-62
2021/10/24 10:39:34;;;;;;;5.32;3.20;;;-0.70;99.90;;;;;;5136431;27;20414;-62
2021/10/24 10:42:26;;;;;;;4.78;2.95;;;-0.70;99.90;;;;;;5136429;27;20023;-64
2021/10/24 10:45:36;;;;;;;3.80;2.92;;;-0.70;99.90;;;;;;5135826;27;20102;-64
2021/10/24 10:48:05;;;;;;;6.75;3.50;;;-0.60;99.90;;;;;;5106267;27;20486;-64
2021/10/24 10:50:38;;;;;;;10.43;3.60;;;-0.40;99.90;;;;;;5135039;27;20091;-62
2021/10/24 10:53:06;;;;;;;5.00;3.05;;;-0.40;99.90;;;;;;5126595;27;20118;-62
2021/10/24 10:56:12;;;;;;;6.28;3.70;;;-0.30;99.90;;;;;;5115070;28;20028;-62
2021/10/24 10:58:52;;;;;;;4.60;3.10;;;-0.30;99.90;;;;;;5114742;28;20038;-62
2021/10/24 11:01:32;;;;;;;5.32;3.33;;;-0.40;99.90;;;;;;5115083;28;20495;-62
2021/10/24 11:04:09;;;;;;;5.90;3.37;;;-0.40;99.90;;;;;;5114997;28;20483;-62
2021/10/24 11:06:38;;;;;;;7.32;3.72;;;-0.40;99.90;;;;;;5115110;28;20042;-62
2021/10/24 11:09:11;;;;;;;5.65;3.03;;;-0.40;99.90;;;;;;5114887;28;20032;-62
2021/10/24 11:11:46;;;;;;;7.68;3.88;;;-0.40;99.90;;;;;;5114414;28;20020;-62
2021/10/24 11:14:11;;;;;;;7.03;3.20;;;-0.40;99.90;;;;;;5114969;28;20043;-62
2021/10/24 11:16:44;;;;;;;4.95;3.10;;;-0.40;99.90;;;;;;5114924;28;20020;-62
2021/10/24 11:19:25;;;;;;;7.80;4.18;;;-0.40;99.90;;;;;;5114660;28;20032;-62
2021/10/24 11:21:53;;;;;;;4.55;2.70;;;-0.40;99.90;;;;;;5114669;28;20027;-62
2021/10/24 11:24:19;;;;;;;6.78;3.33;;;-0.50;99.90;;;;;;5114372;28;20036;-62
2021/10/24 11:26:53;;;;;;;5.10;3.22;;;-0.40;99.90;;;;;;5114422;28;20035;-62
2021/10/24 11:29:18;;;;;;;5.05;3.20;;;-0.40;99.90;;;;;;5114727;28;20069;-62
2021/10/24 11:31:44;;;;;;;5.90;3.15;;;-0.40;99.90;;;;;;5114265;28;20027;-62
2021/10/24 11:34:10;;;;;;;5.57;3.58;;;-0.30;99.90;;;;;;5114357;27;20107;-62
2021/10/24 11:36:44;;;;;;;6.63;3.97;;;-0.30;99.90;;;;;;5114569;28;20051;-62
2021/10/24 11:39:10;;;;;;;6.35;3.67;;;-0.30;99.90;;;;;;5114657;28;20382;-62
2021/10/24 11:41:35;;;;;;;5.82;3.45;;;-0.30;99.90;;;;;;5114410;28;20020;-62
2021/10/24 11:44:10;;;;;;;5.50;3.90;;;-0.30;99.90;;;;;;5114348;28;20088;-62
2021/10/24 11:46:36;;;;;;;6.55;3.50;;;-0.20;99.90;;;;;;5114078;28;20102;-62
2021/10/24 11:49:04;;;;;;;8.10;3.33;;;-0.20;99.90;;;;;;5114341;28;20047;-62
2021/10/24 11:51:32;;;;;;;6.95;4.18;;;-0.10;99.90;;;;;;5113821;28;20023;-62
2021/10/24 11:53:59;;;;;;;5.60;3.22;;;-0.10;99.90;;;;;;5114218;28;20414;-62
2021/10/24 11:59:12;;;;;;;5.00;3.13;;;0.00;99.90;;;;;;5114595;27;20035;-62
2021/10/24 12:01:37;;;;;;;;;;;0.00;99.90;;;;;;5114547;28;20123;-62
2021/10/24 12:04:05;;;;;;;5.57;2.83;;;0.00;99.90;;;;;;5113736;28;20391;-62
2021/10/24 12:06:52;;;;;;;4.18;3.00;;;0.10;99.90;;;;;;5113563;28;20032;-62
2021/10/24 12:09:38;;;;;;;4.97;2.30;;;0.10;99.90;;;;;;5113573;28;20066;-62
2021/10/24 12:12:23;;;;;;;3.92;2.92;;;0.10;99.90;;;;;;5113917;28;20043;-62
2021/10/24 12:14:50;;;;;;;5.20;2.70;;;0.10;99.90;;;;;;5113327;28;20509;-62
2021/10/24 12:17:21;;;;;;;4.40;2.67;;;0.10;99.90;;;;;;5113869;28;20474;-62
2021/10/24 12:19:49;;;;;;;4.05;2.95;;;0.20;99.90;;;;;;5113283;28;20024;-62
2021/10/24 12:22:15;;;;;;;3.47;2.33;;;0.20;99.90;;;;;;5113350;28;20034;-62
2021/10/24 12:24:49;;;;;;;4.38;2.85;;;0.20;99.90;;;;;;5113040;28;20023;-62
2021/10/24 12:27:30;;;;;;;4.90;3.08;;;0.20;99.90;;;;;;5113330;28;20030;-62
2021/10/24 12:29:59;;;;;;;5.55;3.15;;;0.20;99.90;;;;;;5113304;28;20476;-62
2021/10/24 12:32:25;;;;;;;6.20;3.35;;;0.30;99.90;;;;;;5113523;28;20046;-62
2021/10/24 12:35:02;;;;;;;5.85;3.50;;;0.30;99.90;;;;;;5113642;28;20379;-62
2021/10/24 12:37:28;;;;;;;6.95;4.15;;;0.30;99.90;;;;;;5113321;28;20032;-62
2021/10/24 12:40:15;;;;;;;5.03;3.78;;;0.30;99.90;;;;;;5113025;28;20262;-62
2021/10/24 12:42:43;;;;;;;8.90;4.05;;;0.40;99.90;;;;;;5112922;28;20019;-62
2021/10/24 12:45:18;;;;;;;5.90;3.90;;;0.30;99.90;;;;;;5113163;28;20028;-62
2021/10/24 12:47:55;;;;;;;8.55;4.15;;;0.40;99.90;;;;;;5112827;28;20027;-62
2021/10/24 12:50:29;;;;;;;6.05;4.25;;;0.40;99.90;;;;;;5112937;28;20024;-62
2021/10/24 12:53:09;;;;;;;7.45;4.43;;;0.40;99.90;;;;;;5112884;28;20063;-62
2021/10/24 12:55:36;;;;;;;8.13;4.70;;;0.50;99.90;;;;;;5112680;28;20020;-62
2021/10/24 12:58:02;;;;;;;7.90;4.72;;;0.50;99.90;;;;;;5112996;28;20110;-62
2021/10/24 13:00:29;;;;;;;7.65;4.53;;;0.50;99.90;;;;;;5112751;28;20640;-62
2021/10/24 13:02:56;;;;;;;9.02;4.47;;;0.50;99.90;;;;;;5112758;28;20475;-62
2021/10/24 13:05:23;;;;;;;10.70;4.72;;;0.60;99.90;;;;;;5112433;28;20023;-62
2021/10/24 13:07:49;;;;;;;12.60;5.80;;;0.60;99.90;;;;;;5112494;28;20115;-62
2021/10/24 13:10:15;;;;;;;9.23;4.65;;;0.60;99.90;;;;;;5112518;28;20103;-62
2021/10/24 13:12:41;;;;;;;8.65;5.38;;;0.60;99.90;;;;;;5112588;28;20045;-62
2021/10/24 13:15:07;;;;;;;11.45;5.93;;;0.60;99.90;;;;;;5112768;28;20015;-62
2021/10/24 13:17:33;;;;;;;12.77;5.28;;;0.60;99.90;;;;;;5112730;28;20093;-62
2021/10/24 13:19:59;;;;;;;15.65;6.40;;;0.70;99.90;;;;;;5112484;28;20491;-62
2021/10/24 13:25:09;;;;;;;11.10;5.30;;;0.80;99.90;;;;;;5112479;28;20035;-62
2021/10/24 13:27:36;;;;;;;7.72;5.10;;;0.80;99.90;;;;;;5112528;28;20019;-62
2021/10/24 13:30:01;;;;;;;8.77;5.25;;;0.80;99.90;;;;;;5112723;28;20065;-62